Time;durP1;ratioP1;P1;durP2;ratioP2;P2;SDS_P1;SDS_P2;PMS_P1;PMS_P2;Temp;Humidity;BMP_temperature;BMP_pressure;BME280_temperature;BME280_humidity;BME280_pressure;Samples;Min_cycle;Max_cycle;Signal;HPM_P1;HPM_P2
2022/01/08 00:00:18;;;;;;;25.13;12.07;;;-4.00;99.90;;;;;;4938200;29;20407;-85
2022/01/08 00:02:45;;;;;;;21.98;11.68;;;-4.00;99.90;;;;;;4953930;29;20415;-86
2022/01/08 00:05:13;;;;;;;19.90;10.70;;;-4.00;99.90;;;;;;4953806;29;20404;-86
2022/01/08 00:07:41;;;;;;;21.30;11.43;;;-4.00;99.90;;;;;;4938058;29;20466;-86
2022/01/08 00:10:08;;;;;;;23.87;11.90;;;-4.00;99.90;;;;;;4937939;29;20436;-85
2022/01/08 00:12:36;;;;;;;21.95;11.48;;;-4.00;99.90;;;;;;4953600;29;20416;-86
2022/01/08 00:15:06;;;;;;;22.38;11.77;;;-3.90;99.90;;;;;;4969041;28;20416;-87
2022/01/08 00:17:35;;;;;;;19.73;11.10;;;-4.00;99.90;;;;;;4953209;29;20400;-86
2022/01/08 00:20:05;;;;;;;22.05;11.50;;;-3.90;99.90;;;;;;4936995;29;20404;-86
2022/01/08 00:22:33;;;;;;;19.27;10.93;;;-3.90;99.90;;;;;;4952794;29;20404;-87
2022/01/08 00:25:00;;;;;;;20.20;10.25;;;-4.00;99.90;;;;;;4969117;28;20400;-87
2022/01/08 00:27:30;;;;;;;19.33;10.55;;;-4.00;99.90;;;;;;4968951;28;20766;-86
2022/01/08 00:29:58;;;;;;;16.50;9.68;;;-3.90;99.90;;;;;;4951075;29;20451;-86
2022/01/08 00:32:26;;;;;;;17.33;9.83;;;-3.90;99.90;;;;;;4934728;29;20456;-86
2022/01/08 00:34:53;;;;;;;17.88;9.80;;;-4.00;99.90;;;;;;4950483;29;20398;-86
2022/01/08 00:37:21;;;;;;;19.58;10.48;;;-4.00;99.90;;;;;;4935587;29;20974;-87
2022/01/08 00:39:48;;;;;;;18.98;10.55;;;-4.00;99.90;;;;;;4928967;29;20619;-86
2022/01/08 00:42:16;;;;;;;20.40;10.40;;;-3.90;99.90;;;;;;4949142;29;20888;-85
2022/01/08 00:44:43;;;;;;;19.05;10.68;;;-3.90;99.90;;;;;;4918482;29;20449;-86
2022/01/08 00:47:11;;;;;;;21.38;10.85;;;-3.90;99.90;;;;;;4950103;29;20409;-86
2022/01/08 00:49:39;;;;;;;16.70;9.70;;;-3.90;99.90;;;;;;4918123;29;20405;-85
2022/01/08 00:52:06;;;;;;;16.55;9.40;;;-3.90;99.90;;;;;;4952851;29;20400;-86
2022/01/08 00:54:35;;;;;;;17.55;10.25;;;-3.90;99.90;;;;;;4953148;29;20494;-86
2022/01/08 00:57:04;;;;;;;19.08;10.13;;;-3.90;99.90;;;;;;4937081;29;20400;-86
2022/01/08 00:59:35;;;;;;;20.27;11.27;;;-3.90;99.90;;;;;;4953167;28;20475;-85
2022/01/08 01:02:03;;;;;;;20.13;10.07;;;-3.90;99.90;;;;;;4938839;29;20646;-85
2022/01/08 01:04:31;;;;;;;15.85;9.80;;;-3.90;99.90;;;;;;4949867;29;20446;-85
2022/01/08 01:06:58;;;;;;;18.08;10.15;;;-3.90;99.90;;;;;;4934000;29;20422;-86
2022/01/08 01:09:26;;;;;;;19.95;10.60;;;-3.90;99.90;;;;;;4933655;29;20429;-84
2022/01/08 01:11:57;;;;;;;20.42;9.95;;;-3.90;99.90;;;;;;4933910;29;20420;-85
2022/01/08 01:14:26;;;;;;;22.92;11.23;;;-3.90;99.90;;;;;;4934803;29;20414;-86
2022/01/08 01:16:53;;;;;;;23.65;11.85;;;-4.00;99.90;;;;;;4923860;29;20412;-85
2022/01/08 01:19:21;;;;;;;25.65;11.85;;;-4.00;99.90;;;;;;4940797;29;20488;-86
2022/01/08 01:21:51;;;;;;;23.52;11.93;;;-3.90;99.90;;;;;;4943428;29;20396;-85
2022/01/08 01:24:22;;;;;;;24.73;11.87;;;-3.90;99.90;;;;;;4952752;29;20423;-86
2022/01/08 01:48:38;;;;;;;33.40;14.52;;;-3.90;99.90;;;;;;4933252;29;20402;-85
2022/01/08 01:51:06;;;;;;;30.58;14.27;;;-3.90;99.90;;;;;;4949349;29;20433;-85
2022/01/08 01:53:33;;;;;;;31.90;14.00;;;-3.90;99.90;;;;;;4917567;29;20421;-85
2022/01/08 01:56:01;;;;;;;34.30;14.73;;;-3.90;99.90;;;;;;4917581;29;20400;-85
2022/01/08 01:58:28;;;;;;;31.93;14.00;;;-3.90;99.90;;;;;;4952927;29;20394;-85
2022/01/08 02:00:56;;;;;;;32.97;15.45;;;-3.90;99.90;;;;;;4937111;29;20513;-86
2022/01/08 02:03:23;;;;;;;29.95;15.00;;;-3.90;99.90;;;;;;4917598;29;20419;-85
2022/01/08 02:05:51;;;;;;;33.33;14.23;;;-3.80;99.90;;;;;;4919093;29;20474;-86
2022/01/08 02:08:19;;;;;;;31.05;14.07;;;-3.80;99.90;;;;;;4933806;29;20913;-86
2022/01/08 02:10:46;;;;;;;33.05;15.32;;;-3.90;99.90;;;;;;4933989;29;20404;-85
2022/01/08 02:13:25;;;;;;;34.72;15.63;;;-3.90;99.90;;;;;;4919137;29;20565;-85
2022/01/08 02:15:54;;;;;;;36.90;16.37;;;-3.90;99.90;;;;;;4933793;29;20399;-85
2022/01/08 02:18:25;;;;;;;39.65;17.30;;;-3.80;99.90;;;;;;4902358;29;20404;-85
2022/01/08 02:20:58;;;;;;;37.13;16.55;;;-3.80;99.90;;;;;;4933615;29;20491;-86
2022/01/08 02:23:26;;;;;;;36.10;16.87;;;-3.80;99.90;;;;;;4933572;29;20830;-86
2022/01/08 02:26:05;;;;;;;38.80;15.13;;;-3.80;99.90;;;;;;4917761;29;20519;-85
2022/01/08 02:28:34;;;;;;;36.22;16.15;;;-3.80;99.90;;;;;;4933574;29;20490;-86
2022/01/08 02:31:02;;;;;;;41.72;18.25;;;-3.70;99.90;;;;;;4933555;29;20406;-86
2022/01/08 02:33:30;;;;;;;38.30;17.20;;;-3.70;99.90;;;;;;4933661;29;20427;-84
2022/01/08 02:36:03;;;;;;;34.63;15.23;;;-3.70;99.90;;;;;;4917629;29;20455;-87
2022/01/08 02:38:31;;;;;;;35.83;16.73;;;-3.70;99.90;;;;;;4933534;29;20499;-87
2022/01/08 02:41:02;;;;;;;38.47;17.85;;;-3.60;99.90;;;;;;4933496;29;20419;-87
2022/01/08 02:43:33;;;;;;;38.05;17.50;;;-3.60;99.90;;;;;;4933637;29;20939;-86
2022/01/08 02:46:01;;;;;;;37.57;17.33;;;-3.60;99.90;;;;;;4917537;29;20494;-86
2022/01/08 02:48:28;;;;;;;37.08;16.35;;;-3.50;99.90;;;;;;4933301;29;20406;-87
2022/01/08 02:50:56;;;;;;;41.85;17.63;;;-3.50;99.90;;;;;;4917327;29;20458;-85
2022/01/08 02:53:23;;;;;;;39.60;17.15;;;-3.50;99.90;;;;;;4932989;29;20487;-86
2022/01/08 02:55:51;;;;;;;42.00;18.15;;;-3.50;99.90;;;;;;4932898;29;20399;-87
2022/01/08 02:58:21;;;;;;;39.63;16.67;;;-3.40;99.90;;;;;;4917192;29;20905;-86
2022/01/08 03:00:49;;;;;;;37.53;16.27;;;-3.50;99.90;;;;;;4918348;29;20400;-86
2022/01/08 03:03:16;;;;;;;36.22;16.15;;;-3.40;99.90;;;;;;4927826;29;20408;-86
2022/01/08 03:05:44;;;;;;;41.90;18.03;;;-3.40;99.90;;;;;;4937847;29;20436;-86
2022/01/08 03:08:11;;;;;;;35.22;16.55;;;-3.40;99.90;;;;;;4950752;28;20485;-86
2022/01/08 03:10:39;;;;;;;39.13;17.95;;;-3.40;99.90;;;;;;4920274;29;20402;-86
2022/01/08 03:13:07;;;;;;;35.83;16.13;;;-3.40;99.90;;;;;;4935840;29;20426;-87
2022/01/08 03:15:36;;;;;;;41.22;17.65;;;-3.40;99.90;;;;;;4951861;29;20398;-86
2022/01/08 03:18:04;;;;;;;38.90;17.20;;;-3.40;99.90;;;;;;4937062;29;20405;-86
2022/01/08 03:20:35;;;;;;;40.75;17.45;;;-3.40;99.90;;;;;;4920222;29;20453;-86
2022/01/08 03:23:05;;;;;;;40.92;18.40;;;-3.40;99.90;;;;;;4935495;29;20884;-84
2022/01/08 03:25:32;;;;;;;38.22;18.40;;;-3.40;99.90;;;;;;4936667;29;20400;-84
2022/01/08 03:28:00;;;;;;;39.38;18.42;;;-3.40;99.90;;;;;;4935259;29;20394;-85
2022/01/08 03:30:28;;;;;;;38.60;19.02;;;-3.40;99.90;;;;;;4948952;28;20412;-85
2022/01/08 03:32:55;;;;;;;35.13;17.27;;;-3.30;99.90;;;;;;4942916;28;20504;-85
2022/01/08 03:35:23;;;;;;;38.58;19.40;;;-3.30;99.90;;;;;;4952856;28;20818;-85
2022/01/08 03:37:51;;;;;;;39.65;18.48;;;-3.30;99.90;;;;;;4933038;29;20404;-85
2022/01/08 03:40:19;;;;;;;46.75;21.30;;;-3.30;99.90;;;;;;4954335;29;20485;-85
2022/01/08 03:42:46;;;;;;;39.38;19.40;;;-3.30;99.90;;;;;;4954252;29;20751;-84
2022/01/08 03:45:14;;;;;;;36.72;17.98;;;-3.30;99.90;;;;;;4963290;28;20408;-86
2022/01/08 03:50:16;;;;;;;36.80;18.57;;;-3.30;99.90;;;;;;4953377;29;20395;-87
2022/01/08 03:52:45;;;;;;;39.50;19.42;;;-3.30;99.90;;;;;;4958179;28;20400;-88
2022/01/08 03:55:13;;;;;;;44.33;20.15;;;-3.30;99.90;;;;;;4953973;28;20408;-86
2022/01/08 03:57:41;;;;;;;42.42;21.08;;;-3.30;99.90;;;;;;4954325;29;20480;-87
2022/01/08 04:00:09;;;;;;;48.13;22.40;;;-3.20;99.90;;;;;;4954146;29;20805;-86
2022/01/08 04:02:40;;;;;;;46.93;23.90;;;-3.20;99.90;;;;;;4954928;28;20406;-86
2022/01/08 04:05:08;;;;;;;45.83;23.70;;;-3.20;99.90;;;;;;4953851;29;20424;-85
2022/01/08 04:07:35;;;;;;;48.17;23.38;;;-3.20;99.90;;;;;;4954261;28;20403;-86
2022/01/08 04:10:03;;;;;;;49.08;25.05;;;-3.20;99.90;;;;;;4955325;29;20451;-86
2022/01/08 04:12:38;;;;;;;50.65;26.20;;;-3.20;99.90;;;;;;4937966;29;20400;-86
2022/01/08 04:15:19;;;;;;;50.17;24.92;;;-3.10;99.90;;;;;;4954077;29;20415;-86
2022/01/08 04:17:48;;;;;;;48.73;26.63;;;-3.20;99.90;;;;;;4953942;29;20388;-85
2022/01/08 04:20:16;;;;;;;48.00;25.92;;;-3.10;99.90;;;;;;4962377;28;20391;-86
2022/01/08 04:22:47;;;;;;;46.50;26.40;;;-3.20;99.90;;;;;;4947654;29;20404;-85
2022/01/08 04:25:16;;;;;;;51.22;27.08;;;-3.20;99.90;;;;;;4953582;28;20412;-85
2022/01/08 04:27:43;;;;;;;47.60;27.35;;;-3.10;99.90;;;;;;4953651;29;20403;-86
2022/01/08 04:30:12;;;;;;;48.90;26.08;;;-3.20;99.90;;;;;;4953701;29;20441;-86
2022/01/08 04:32:40;;;;;;;51.88;30.00;;;-3.10;99.90;;;;;;4954829;29;20426;-86
2022/01/08 04:35:08;;;;;;;53.67;27.23;;;-3.20;99.90;;;;;;4953500;29;20412;-86
2022/01/08 04:37:35;;;;;;;47.65;26.60;;;-3.20;99.90;;;;;;4937700;29;20478;-86
2022/01/08 04:40:03;;;;;;;50.05;28.65;;;-3.20;99.90;;;;;;4952568;28;20422;-86
2022/01/08 04:42:31;;;;;;;46.85;27.42;;;-3.20;99.90;;;;;;4937286;29;20763;-86
2022/01/08 04:44:58;;;;;;;51.10;28.20;;;-3.10;99.90;;;;;;4937577;29;20396;-86
2022/01/08 04:47:26;;;;;;;50.70;28.27;;;-3.20;99.90;;;;;;4953355;29;20408;-86
2022/01/08 04:49:54;;;;;;;52.92;29.50;;;-3.20;99.90;;;;;;4937649;29;20392;-86
2022/01/08 04:52:21;;;;;;;47.60;27.23;;;-3.20;99.90;;;;;;4953333;29;20467;-86
2022/01/08 04:54:49;;;;;;;50.97;28.40;;;-3.20;99.90;;;;;;4937199;29;20408;-85
2022/01/08 04:57:16;;;;;;;47.50;26.83;;;-3.20;99.90;;;;;;4937312;29;20922;-87
2022/01/08 04:59:44;;;;;;;47.67;27.98;;;-3.20;99.90;;;;;;4937348;29;20400;-86
2022/01/08 05:02:12;;;;;;;44.85;26.80;;;-3.20;99.90;;;;;;4924746;29;20413;-85
2022/01/08 05:04:39;;;;;;;46.70;26.58;;;-3.20;99.90;;;;;;4939360;29;20410;-84
2022/01/08 05:07:07;;;;;;;45.33;27.35;;;-3.20;99.90;;;;;;4937335;29;20400;-86
2022/01/08 05:09:35;;;;;;;50.67;28.17;;;-3.20;99.90;;;;;;4946872;29;20396;-85
2022/01/08 05:12:03;;;;;;;45.55;27.17;;;-3.30;99.90;;;;;;4937163;29;20463;-86
2022/01/08 05:14:31;;;;;;;48.30;27.50;;;-3.30;99.90;;;;;;4952691;29;20408;-85
2022/01/08 05:17:01;;;;;;;48.37;27.80;;;-3.30;99.90;;;;;;4952913;29;20392;-86
2022/01/08 05:19:45;;;;;;;48.07;28.30;;;-3.30;99.90;;;;;;4954046;29;20393;-85
2022/01/08 05:22:23;;;;;;;50.40;28.45;;;-3.30;99.90;;;;;;4952951;29;20896;-84
2022/01/08 05:24:51;;;;;;;52.35;31.02;;;-3.30;99.90;;;;;;4952724;29;21066;-86
2022/01/08 05:27:19;;;;;;;54.47;32.45;;;-3.30;99.90;;;;;;4952653;29;20412;-85
2022/01/08 05:29:49;;;;;;;53.17;31.55;;;-3.30;99.90;;;;;;4953860;29;20396;-85
2022/01/08 05:32:19;;;;;;;51.58;29.60;;;-3.30;99.90;;;;;;4952134;28;20430;-86
2022/01/08 05:34:49;;;;;;;51.78;30.35;;;-3.30;99.90;;;;;;4952805;28;20822;-86
2022/01/08 05:37:18;;;;;;;53.83;32.50;;;-3.30;99.90;;;;;;4953797;29;20396;-85
2022/01/08 05:39:47;;;;;;;49.58;29.60;;;-3.30;99.90;;;;;;4953877;29;20396;-86
2022/01/08 05:42:14;;;;;;;55.03;31.35;;;-3.40;99.90;;;;;;4952804;29;20786;-85
2022/01/08 05:44:42;;;;;;;52.33;30.10;;;-3.30;99.90;;;;;;4952579;29;20405;-85
2022/01/08 05:47:10;;;;;;;54.13;31.40;;;-3.30;99.90;;;;;;4952471;29;20468;-85
2022/01/08 05:49:38;;;;;;;52.38;30.23;;;-3.40;99.90;;;;;;4952479;29;20396;-85
2022/01/08 05:52:07;;;;;;;51.45;30.33;;;-3.30;99.90;;;;;;4953650;29;20400;-86
2022/01/08 05:54:35;;;;;;;51.45;30.77;;;-3.40;99.90;;;;;;4952364;29;20404;-86
2022/01/08 05:57:03;;;;;;;53.05;31.85;;;-3.40;99.90;;;;;;4953508;29;20396;-86
2022/01/08 05:59:30;;;;;;;49.75;28.92;;;-3.40;99.90;;;;;;4952649;29;20766;-85
2022/01/08 06:01:58;;;;;;;49.88;29.52;;;-3.30;99.90;;;;;;4936436;29;20411;-85
2022/01/08 06:04:26;;;;;;;50.72;29.15;;;-3.40;99.90;;;;;;4953291;29;20538;-85
2022/01/08 06:06:53;;;;;;;53.45;29.58;;;-3.40;99.90;;;;;;4952322;29;20822;-85
2022/01/08 06:09:21;;;;;;;50.90;29.52;;;-3.40;99.90;;;;;;4953202;29;20487;-86
2022/01/08 06:11:49;;;;;;;48.10;28.60;;;-3.40;99.90;;;;;;4934458;29;20394;-85
2022/01/08 06:14:16;;;;;;;55.42;31.67;;;-3.40;99.90;;;;;;4949084;29;20487;-85
2022/01/08 06:16:44;;;;;;;50.92;29.60;;;-3.40;99.90;;;;;;4917248;29;20401;-87
2022/01/08 06:19:13;;;;;;;49.53;29.83;;;-3.40;99.90;;;;;;4933097;29;20394;-86
2022/01/08 06:21:41;;;;;;;54.78;30.90;;;-3.40;99.90;;;;;;4962696;28;20404;-86
2022/01/08 06:24:12;;;;;;;52.50;32.55;;;-3.40;99.90;;;;;;4953361;29;20392;-86
2022/01/08 06:26:40;;;;;;;54.05;30.95;;;-3.30;99.90;;;;;;4967276;28;20467;-85
2022/01/08 06:29:07;;;;;;;55.10;31.23;;;-3.30;99.90;;;;;;4950753;28;20417;-85
2022/01/08 06:31:35;;;;;;;53.22;32.33;;;-3.30;99.90;;;;;;4951664;28;20840;-86
2022/01/08 06:34:03;;;;;;;55.60;31.30;;;-3.20;99.90;;;;;;4935816;29;20914;-86
2022/01/08 06:36:31;;;;;;;57.85;31.98;;;-3.20;99.90;;;;;;4951986;29;20396;-86
2022/01/08 06:38:58;;;;;;;57.15;32.58;;;-3.20;99.90;;;;;;4951985;29;20928;-86
2022/01/08 06:41:29;;;;;;;58.95;32.25;;;-3.20;99.90;;;;;;4968020;28;20407;-87
2022/01/08 06:43:57;;;;;;;57.65;32.20;;;-3.20;99.90;;;;;;4938984;29;20427;-85
2022/01/08 06:46:25;;;;;;;57.15;32.25;;;-3.20;99.90;;;;;;4937483;29;20420;-86
2022/01/08 06:48:53;;;;;;;55.88;31.50;;;-3.20;99.90;;;;;;4954822;29;20408;-86
2022/01/08 06:51:20;;;;;;;48.33;28.07;;;-3.20;99.90;;;;;;4955543;29;20933;-87
2022/01/08 06:53:48;;;;;;;57.05;32.17;;;-3.20;99.90;;;;;;4956230;28;20400;-85
2022/01/08 06:56:17;;;;;;;56.63;32.95;;;-3.20;99.90;;;;;;4971592;28;20404;-86
2022/01/08 06:58:46;;;;;;;53.28;31.17;;;-3.20;99.90;;;;;;4928079;29;20422;-85
2022/01/08 07:01:13;;;;;;;56.63;32.03;;;-3.20;99.90;;;;;;4944070;29;20407;-85
2022/01/08 07:03:41;;;;;;;50.00;28.80;;;-3.30;99.90;;;;;;4938897;29;20411;-86
2022/01/08 07:06:09;;;;;;;49.65;28.83;;;-3.40;99.90;;;;;;4955086;29;20415;-87
2022/01/08 07:08:36;;;;;;;45.85;26.38;;;-3.40;99.90;;;;;;4939412;29;20412;-86
2022/01/08 07:11:04;;;;;;;52.03;29.63;;;-3.30;99.90;;;;;;4954727;29;20416;-86
2022/01/08 07:13:31;;;;;;;49.80;29.00;;;-3.30;99.90;;;;;;4939416;29;20467;-85
2022/01/08 07:15:59;;;;;;;52.28;30.40;;;-3.30;99.90;;;;;;4955644;29;20766;-86
2022/01/08 07:18:27;;;;;;;51.23;29.63;;;-3.40;99.90;;;;;;4954728;28;20989;-87
2022/01/08 07:20:54;;;;;;;53.45;30.13;;;-3.40;99.90;;;;;;4953930;29;20775;-86
2022/01/08 07:23:22;;;;;;;54.47;30.30;;;-3.30;99.90;;;;;;4955765;29;20393;-87
2022/01/08 07:25:51;;;;;;;52.25;29.02;;;-3.30;99.90;;;;;;4954785;29;20735;-88
2022/01/08 07:28:18;;;;;;;48.83;28.80;;;-3.40;99.90;;;;;;4970842;28;20476;-86
2022/01/08 07:30:46;;;;;;;52.65;28.92;;;-3.40;99.90;;;;;;4954716;29;20398;-85
2022/01/08 07:33:15;;;;;;;48.13;27.70;;;-3.40;99.90;;;;;;4970539;28;20419;-86
2022/01/08 07:35:42;;;;;;;48.13;28.02;;;-3.50;99.90;;;;;;4962945;28;20418;-85
2022/01/08 07:38:10;;;;;;;45.85;25.73;;;-3.40;99.90;;;;;;4935565;29;20402;-86
2022/01/08 07:40:38;;;;;;;47.22;27.38;;;-3.40;99.90;;;;;;4935532;29;20398;-86
2022/01/08 07:43:05;;;;;;;48.25;27.13;;;-3.50;99.90;;;;;;4936693;29;20394;-86
2022/01/08 07:45:33;;;;;;;50.75;27.05;;;-3.40;99.90;;;;;;4958612;28;20408;-87
2022/01/08 07:48:01;;;;;;;46.08;25.88;;;-3.50;99.90;;;;;;4938728;29;20401;-86
2022/01/08 07:50:28;;;;;;;50.67;27.65;;;-3.50;99.90;;;;;;4938447;28;20528;-85
2022/01/08 07:52:56;;;;;;;45.95;25.50;;;-3.40;99.90;;;;;;4954401;29;20983;-85
2022/01/08 07:55:23;;;;;;;44.42;24.45;;;-3.50;99.90;;;;;;4953741;28;20419;-85
2022/01/08 07:57:51;;;;;;;45.20;24.95;;;-3.50;99.90;;;;;;4938592;29;20567;-86
2022/01/08 08:00:19;;;;;;;37.33;21.55;;;-3.60;99.90;;;;;;4954513;29;20795;-86
2022/01/08 08:02:46;;;;;;;42.47;23.02;;;-3.60;99.90;;;;;;4955253;29;20400;-87
2022/01/08 08:05:14;;;;;;;43.80;24.67;;;-3.70;99.90;;;;;;4954350;29;20416;-86
2022/01/08 08:07:42;;;;;;;43.63;23.77;;;-3.70;99.90;;;;;;4937923;29;20420;-87
2022/01/08 08:10:17;;;;;;;42.00;23.50;;;-3.60;99.90;;;;;;4954202;29;20411;-86
2022/01/08 08:12:45;;;;;;;38.67;21.50;;;-3.60;99.90;;;;;;4922409;29;20759;-85
2022/01/08 08:15:16;;;;;;;42.00;24.27;;;-3.60;99.90;;;;;;4953259;28;20415;-85
2022/01/08 08:17:43;;;;;;;48.53;26.80;;;-3.50;99.90;;;;;;4934763;29;20401;-86
2022/01/08 08:20:12;;;;;;;43.87;22.97;;;-3.50;99.90;;;;;;4950925;29;20397;-86
2022/01/08 08:22:40;;;;;;;44.35;23.33;;;-3.60;99.90;;;;;;4953859;29;20403;-84
2022/01/08 08:25:10;;;;;;;44.85;24.50;;;-3.40;99.90;;;;;;4953657;29;20404;-86
2022/01/08 08:27:39;;;;;;;42.58;23.05;;;-3.40;99.90;;;;;;4937953;29;20875;-85
2022/01/08 08:30:09;;;;;;;39.42;22.55;;;-3.30;99.90;;;;;;4953687;28;20392;-87
2022/01/08 08:32:37;;;;;;;40.10;22.67;;;-3.40;99.90;;;;;;4922367;29;20408;-88
2022/01/08 08:35:06;;;;;;;39.28;22.08;;;-3.40;99.90;;;;;;4953720;29;20403;-88
2022/01/08 08:37:35;;;;;;;39.10;21.38;;;-3.50;99.90;;;;;;4953734;29;20945;-87
2022/01/08 08:40:10;;;;;;;39.95;21.50;;;-3.60;99.90;;;;;;4953312;29;20890;-86
2022/01/08 08:42:39;;;;;;;42.55;22.63;;;-3.60;99.90;;;;;;4955011;29;20392;-87
2022/01/08 08:45:08;;;;;;;41.35;22.75;;;-3.60;99.90;;;;;;4937021;28;20464;-86
2022/01/08 08:47:36;;;;;;;43.20;23.15;;;-3.50;99.90;;;;;;4954493;29;20491;-85
2022/01/08 08:50:06;;;;;;;41.13;21.97;;;-3.50;99.90;;;;;;4950793;28;20439;-86
2022/01/08 08:52:34;;;;;;;36.58;20.02;;;-3.50;99.90;;;;;;4964193;28;20434;-87
2022/01/08 08:55:02;;;;;;;38.83;21.73;;;-3.40;99.90;;;;;;4936793;29;20507;-86
2022/01/08 08:57:29;;;;;;;41.88;22.48;;;-3.40;99.90;;;;;;4953063;29;20400;-86
2022/01/08 08:59:57;;;;;;;38.77;19.70;;;-3.50;99.90;;;;;;4954472;29;20439;-85
2022/01/08 09:02:24;;;;;;;38.83;21.38;;;-3.50;99.90;;;;;;4921090;29;20403;-85
2022/01/08 09:04:52;;;;;;;42.92;21.95;;;-3.50;99.90;;;;;;4953222;29;20404;-87
2022/01/08 09:07:20;;;;;;;41.58;22.02;;;-3.50;99.90;;;;;;4953324;28;20447;-86
2022/01/08 09:09:47;;;;;;;40.43;22.23;;;-3.40;99.90;;;;;;4935714;29;20454;-85
2022/01/08 09:12:16;;;;;;;41.30;22.42;;;-3.40;99.90;;;;;;4934348;29;20414;-86
2022/01/08 09:14:44;;;;;;;42.87;22.60;;;-3.30;99.90;;;;;;4920424;29;20408;-87
2022/01/08 09:17:13;;;;;;;40.92;23.23;;;-3.30;99.90;;;;;;4935728;29;20419;-86
2022/01/08 09:19:42;;;;;;;38.75;21.55;;;-3.30;99.90;;;;;;4933761;29;20753;-87
2022/01/08 09:22:12;;;;;;;40.22;21.95;;;-3.30;99.90;;;;;;4949724;29;20398;-86
2022/01/08 09:24:40;;;;;;;36.75;19.55;;;-3.30;99.90;;;;;;4917932;29;20858;-86
2022/01/08 09:27:09;;;;;;;37.67;20.52;;;-3.40;99.90;;;;;;4962248;28;20467;-86
2022/01/08 09:29:36;;;;;;;37.22;19.27;;;-3.30;99.90;;;;;;4968761;28;20401;-85
2022/01/08 09:32:06;;;;;;;40.55;21.90;;;-3.40;99.90;;;;;;4936907;29;20945;-84
2022/01/08 09:34:33;;;;;;;36.58;20.35;;;-3.40;99.90;;;;;;4936772;29;20946;-86
2022/01/08 09:37:01;;;;;;;36.42;19.92;;;-3.40;99.90;;;;;;4953843;29;20416;-87
2022/01/08 09:39:30;;;;;;;36.47;20.00;;;-3.40;99.90;;;;;;4952878;29;20423;-87
2022/01/08 09:41:58;;;;;;;41.03;21.23;;;-3.40;99.90;;;;;;4953874;29;20835;-87
2022/01/08 09:44:26;;;;;;;38.53;21.20;;;-3.40;99.90;;;;;;4968925;28;20739;-88
2022/01/08 09:46:54;;;;;;;38.08;20.85;;;-3.40;99.90;;;;;;4952740;29;20404;-86
2022/01/08 09:49:21;;;;;;;34.33;18.45;;;-3.40;99.90;;;;;;4952539;29;20431;-87
2022/01/08 09:51:49;;;;;;;39.03;20.03;;;-3.50;99.90;;;;;;4952901;29;20416;-87
2022/01/08 09:54:17;;;;;;;38.05;19.38;;;-3.60;99.90;;;;;;4936587;29;20815;-88
2022/01/08 09:56:44;;;;;;;33.50;19.37;;;-3.60;99.90;;;;;;4955978;28;20944;-87
2022/01/08 09:59:12;;;;;;;37.65;20.10;;;-3.40;99.90;;;;;;4952577;28;20400;-87
2022/01/08 10:01:40;;;;;;;32.38;17.52;;;-3.50;99.90;;;;;;4952545;29;20495;-86
2022/01/08 10:04:07;;;;;;;36.33;20.73;;;-3.60;99.90;;;;;;4968411;28;20408;-87
2022/01/08 10:06:36;;;;;;;34.80;19.40;;;-3.50;99.90;;;;;;4968757;28;20810;-86
2022/01/08 10:09:05;;;;;;;34.57;19.90;;;-3.40;99.90;;;;;;4936423;29;20404;-85
2022/01/08 10:11:33;;;;;;;34.67;18.90;;;-3.50;99.90;;;;;;4952121;28;20422;-86
2022/01/08 10:14:06;;;;;;;33.05;18.58;;;-3.50;99.90;;;;;;4952321;28;20770;-85
2022/01/08 10:19:30;;;;;;;35.58;19.67;;;-3.40;99.90;;;;;;4972108;28;20960;-86
2022/01/08 10:21:58;;;;;;;36.17;18.42;;;-3.40;99.90;;;;;;4949856;28;20447;-86
2022/01/08 10:24:28;;;;;;;36.20;19.05;;;-3.40;99.90;;;;;;4940165;29;20404;-85
2022/01/08 10:27:04;;;;;;;32.53;17.93;;;-3.40;99.90;;;;;;4957082;29;20396;-86
2022/01/08 10:29:33;;;;;;;34.45;18.20;;;-3.40;99.90;;;;;;4955828;28;20425;-84
2022/01/08 10:32:05;;;;;;;34.00;18.05;;;-3.50;99.90;;;;;;4940447;29;20412;-87
2022/01/08 10:34:32;;;;;;;35.05;18.45;;;-3.40;99.90;;;;;;4956748;29;20408;-86
2022/01/08 10:37:05;;;;;;;33.15;17.65;;;-3.50;99.90;;;;;;4971667;28;20408;-86
2022/01/08 10:39:34;;;;;;;36.10;18.70;;;-3.40;99.90;;;;;;4939792;29;20587;-86
2022/01/08 10:42:15;;;;;;;30.80;16.45;;;-3.50;99.90;;;;;;4956978;29;20388;-85
2022/01/08 10:44:46;;;;;;;32.60;16.58;;;-3.50;99.90;;;;;;4954966;29;20913;-85
2022/01/08 10:47:21;;;;;;;32.28;16.75;;;-3.50;99.90;;;;;;4952480;29;20466;-84
2022/01/08 10:50:02;;;;;;;31.08;16.08;;;-3.50;99.90;;;;;;4955384;28;20987;-86
2022/01/08 10:52:42;;;;;;;32.63;16.80;;;-3.50;99.90;;;;;;4971364;28;20403;-86
2022/01/08 10:55:13;;;;;;;31.58;16.58;;;-3.50;99.90;;;;;;4956698;29;20427;-86
2022/01/08 10:57:45;;;;;;;31.65;15.52;;;-3.50;99.90;;;;;;4938799;29;21524;-85
2022/01/08 11:00:14;;;;;;;29.63;16.50;;;-3.50;99.90;;;;;;4954908;29;20755;-85
2022/01/08 11:02:44;;;;;;;31.77;16.23;;;-3.40;99.90;;;;;;4956083;29;20400;-86
2022/01/08 11:05:12;;;;;;;33.67;16.63;;;-3.50;99.90;;;;;;4955179;29;20404;-85
2022/01/08 11:07:41;;;;;;;30.80;16.47;;;-3.50;99.90;;;;;;4971014;28;20969;-86
2022/01/08 11:10:16;;;;;;;28.95;16.67;;;-3.40;99.90;;;;;;4970707;28;20756;-86
2022/01/08 11:12:46;;;;;;;30.98;16.55;;;-3.50;99.90;;;;;;4952590;28;20443;-85
2022/01/08 11:17:54;;;;;;;33.58;17.23;;;-3.50;99.90;;;;;;4954714;29;20483;-84
2022/01/08 11:20:45;;;;;;;38.22;26.15;;;-3.40;99.90;;;;;;4941385;29;20411;-85
2022/01/08 11:23:19;;;;;;;53.05;36.45;;;-3.40;99.90;;;;;;4954153;29;20494;-83
2022/01/08 11:25:51;;;;;;;32.27;18.00;;;-3.40;99.90;;;;;;4954114;28;20424;-84
2022/01/08 11:28:19;;;;;;;32.55;19.23;;;-3.50;99.90;;;;;;4970453;28;20476;-84
2022/01/08 11:30:49;;;;;;;28.03;14.70;;;-3.50;99.90;;;;;;4953722;29;20807;-84
2022/01/08 11:33:23;;;;;;;32.03;19.13;;;-3.50;99.90;;;;;;4970582;28;20412;-84
2022/01/08 11:35:52;;;;;;;32.30;17.90;;;-3.40;99.90;;;;;;4955474;29;20495;-83
2022/01/08 11:38:22;;;;;;;28.52;15.57;;;-3.40;99.90;;;;;;4954347;29;20483;-84
2022/01/08 11:40:51;;;;;;;28.67;16.83;;;-3.40;99.90;;;;;;4970310;28;20400;-84
2022/01/08 11:43:22;;;;;;;29.17;16.55;;;-3.40;99.90;;;;;;4935825;29;20950;-84
2022/01/08 11:45:56;;;;;;;31.98;19.05;;;-3.40;99.90;;;;;;4953971;29;20439;-83
2022/01/08 11:48:37;;;;;;;31.55;17.48;;;-3.40;99.90;;;;;;4955340;29;20397;-84
2022/01/08 11:51:06;;;;;;;30.52;16.60;;;-3.40;99.90;;;;;;4955309;29;20920;-83
2022/01/08 11:54:04;;;;;;;27.42;14.35;;;-3.40;99.90;;;;;;4969986;28;20463;-84
2022/01/08 11:56:38;;;;;;;26.58;15.18;;;-3.30;99.90;;;;;;4954405;29;20424;-83
2022/01/08 11:59:13;;;;;;;25.77;15.32;;;-3.30;99.90;;;;;;4951268;28;20465;-83
2022/01/08 12:01:44;;;;;;;28.58;15.30;;;-3.30;99.90;;;;;;4939795;29;20467;-83
2022/01/08 12:04:31;;;;;;;26.35;13.65;;;-3.40;99.90;;;;;;4925727;29;20913;-84
2022/01/08 12:07:19;;;;;;;24.02;12.95;;;-3.40;99.90;;;;;;4940833;28;20410;-84
2022/01/08 12:09:47;;;;;;;27.42;13.90;;;-3.40;99.90;;;;;;4939607;28;20509;-84
2022/01/08 12:12:14;;;;;;;25.95;14.15;;;-3.40;99.90;;;;;;4913181;29;20990;-83
2022/01/08 12:14:42;;;;;;;29.00;13.05;;;-3.40;99.90;;;;;;4941677;29;20447;-83
2022/01/08 12:17:20;;;;;;;25.58;14.13;;;-3.40;99.90;;;;;;4927447;29;20544;-83
2022/01/08 12:19:58;;;;;;;28.63;15.13;;;-3.40;99.90;;;;;;4939041;29;20416;-83
2022/01/08 12:22:25;;;;;;;26.75;13.98;;;-3.40;99.90;;;;;;4931170;29;20391;-83
2022/01/08 12:24:55;;;;;;;25.58;12.88;;;-3.30;99.90;;;;;;4931210;29;20399;-83
2022/01/08 12:27:35;;;;;;;26.33;14.10;;;-3.30;99.90;;;;;;4931232;29;20471;-84
2022/01/08 12:30:18;;;;;;;28.17;14.30;;;-3.20;99.90;;;;;;4919491;29;20489;-84
2022/01/08 12:33:08;;;;;;;28.15;14.40;;;-3.20;99.90;;;;;;4933958;29;20430;-85
2022/01/08 12:35:38;;;;;;;29.60;15.70;;;-3.20;99.90;;;;;;4935294;29;20488;-85
2022/01/08 12:38:24;;;;;;;27.67;13.38;;;-3.20;99.90;;;;;;4934422;29;20410;-85
2022/01/08 12:40:52;;;;;;;27.10;14.02;;;-3.20;99.90;;;;;;4934026;29;20954;-85
2022/01/08 12:43:31;;;;;;;28.17;14.20;;;-3.20;99.90;;;;;;4934748;29;20761;-85
2022/01/08 12:46:12;;;;;;;31.67;17.00;;;-3.20;99.90;;;;;;4935109;29;20410;-83
2022/01/08 12:49:05;;;;;;;31.23;15.20;;;-3.10;99.90;;;;;;4934978;29;20413;-85
2022/01/08 12:51:49;;;;;;;27.95;15.02;;;-3.20;99.90;;;;;;4934950;28;20402;-85
2022/01/08 12:54:18;;;;;;;29.20;15.02;;;-3.20;99.90;;;;;;4935225;29;20504;-85
2022/01/08 12:56:57;;;;;;;29.80;15.55;;;-3.20;99.90;;;;;;4935274;29;20410;-84
2022/01/08 12:59:34;;;;;;;28.60;14.35;;;-3.20;99.90;;;;;;4949704;29;20457;-84
2022/01/08 13:02:08;;;;;;;24.40;12.70;;;-3.20;99.90;;;;;;4948621;29;20952;-85
2022/01/08 13:04:39;;;;;;;27.02;13.55;;;-3.20;99.90;;;;;;4915546;29;20451;-84
2022/01/08 13:07:07;;;;;;;27.40;13.47;;;-3.30;99.90;;;;;;4931091;29;20468;-84
2022/01/08 13:09:35;;;;;;;28.75;13.60;;;-3.20;99.90;;;;;;4934886;29;20401;-84